createdAt,value
2023-04-16T00:02:34.322Z,75.24
2023-04-16T00:05:22.523Z,75.36
2023-04-16T00:08:32.547Z,75.42
2023-04-16T00:11:16.372Z,75.54
2023-04-16T00:17:19.392Z,75.68
2023-04-16T00:20:22.562Z,75.71
2023-04-16T00:23:51.732Z,75.71
2023-04-16T00:26:51.846Z,75.91
2023-04-16T00:29:36.149Z,76.03
2023-04-16T00:32:40.897Z,76.01
2023-04-16T00:35:45.644Z,76.23
2023-04-16T00:38:56.188Z,76.34
2023-04-16T00:41:51.517Z,76.26
2023-04-16T00:44:41.251Z,76.54
2023-04-16T00:47:41.431Z,76.65
2023-04-16T00:50:50.461Z,76.66
2023-04-16T00:53:37.711Z,76.67
2023-04-16T00:56:36.825Z,76.62
2023-04-16T00:59:27.646Z,76.52
2023-04-16T01:02:38.284Z,76.55
2023-04-16T01:05:18.039Z,76.56
2023-04-16T01:08:22.423Z,76.52
2023-04-16T01:11:03.128Z,76.39
2023-04-16T01:14:25.307Z,76.48
2023-04-16T01:17:22.956Z,76.40
2023-04-16T01:20:53.740Z,76.48
2023-04-16T01:23:45.519Z,76.39
2023-04-16T01:26:25.169Z,76.46
2023-04-16T01:29:24.641Z,76.49
2023-04-16T01:32:34.920Z,76.47
2023-04-16T01:36:00.884Z,76.47
2023-04-16T01:38:42.124Z,76.39
2023-04-16T01:41:23.162Z,76.34
2023-04-16T01:44:11.559Z,76.40
2023-04-16T01:46:59.359Z,76.51
2023-04-16T01:49:51.998Z,76.58
2023-04-16T01:52:46.718Z,76.68
2023-04-16T01:55:31.014Z,76.68
2023-04-16T01:58:17.230Z,76.53
2023-04-16T02:00:57.932Z,76.59
2023-04-16T02:03:43.052Z,76.47
2023-04-16T02:06:43.402Z,76.37
2023-04-16T02:10:00.938Z,76.63
2023-04-16T02:13:02.852Z,76.91
2023-04-16T02:16:21.879Z,77.02
2023-04-16T02:19:04.373Z,77.24
2023-04-16T02:21:49.461Z,77.27
2023-04-16T02:24:38.538Z,77.31
2023-04-16T02:27:33.765Z,77.31
2023-04-16T02:30:23.096Z,77.39
2023-04-16T02:33:07.921Z,77.47
2023-04-16T02:36:14.508Z,77.40
2023-04-16T02:38:57.331Z,77.53
2023-04-16T02:41:39.894Z,77.56
2023-04-16T02:44:23.271Z,77.59
2023-04-16T02:47:09.103Z,77.65
2023-04-16T02:50:03.956Z,77.69
2023-04-16T02:52:47.381Z,77.70
2023-04-16T02:55:31.474Z,77.70
2023-04-16T02:58:27.449Z,77.68
2023-04-16T03:01:07.882Z,77.71
2023-04-16T03:03:53.301Z,77.76
2023-04-16T03:06:29.386Z,77.68
2023-04-16T03:09:21.839Z,77.68
2023-04-16T03:12:19.722Z,77.87
2023-04-16T03:15:04.176Z,77.87
2023-04-16T03:17:50.849Z,77.80
2023-04-16T03:20:47.207Z,77.80
2023-04-16T03:23:39.404Z,77.88
2023-04-16T03:26:32.617Z,78.11
2023-04-16T03:29:31.567Z,78.19
2023-04-16T03:32:11.437Z,78.23
2023-04-16T03:35:03.994Z,78.44
2023-04-16T03:37:42.426Z,78.49
2023-04-16T03:40:22.241Z,78.36
2023-04-16T03:43:06.051Z,78.23
2023-04-16T03:46:01.711Z,78.33
2023-04-16T03:52:19.620Z,78.22
2023-04-16T03:55:09.830Z,78.28
2023-04-16T03:58:21.104Z,78.38
2023-04-16T04:01:27.716Z,78.46
2023-04-16T04:04:17.818Z,78.33
2023-04-16T04:07:24.711Z,78.46
2023-04-16T04:10:07.101Z,78.49
2023-04-16T04:12:50.676Z,78.36
2023-04-16T04:15:54.178Z,78.42
2023-04-16T04:18:38.926Z,78.29
2023-04-16T04:21:20.723Z,78.18
2023-04-16T04:24:00.585Z,78.17
2023-04-16T04:26:38.186Z,78.07
2023-04-16T04:30:04.366Z,78.25
2023-04-16T04:33:03.263Z,78.24
2023-04-16T04:36:05.182Z,78.56
2023-04-16T04:39:03.352Z,78.59
2023-04-16T04:42:10.395Z,78.38
2023-04-16T04:45:03.962Z,78.34
2023-04-16T04:47:50.289Z,78.46
2023-04-16T04:50:45.544Z,78.47
2023-04-16T04:53:38.644Z,78.33
2023-04-16T04:56:52.831Z,78.27
2023-04-16T04:59:53.273Z,78.44
2023-04-16T05:02:39.249Z,78.41
2023-04-16T05:05:37.280Z,78.41
2023-04-16T05:08:20.668Z,78.39
2023-04-16T05:11:17.778Z,78.24
2023-04-16T05:14:00.694Z,78.32
2023-04-16T05:17:02.299Z,78.55
2023-04-16T05:20:19.988Z,78.79
2023-04-16T05:23:38.054Z,78.91
2023-04-16T05:26:20.374Z,79.20
2023-04-16T05:29:20.147Z,79.22
2023-04-16T05:32:19.983Z,79.00
2023-04-16T05:35:30.763Z,79.30
2023-04-16T05:38:30.785Z,79.40
2023-04-16T05:44:00.540Z,79.42
2023-04-16T05:47:11.127Z,79.42
2023-04-16T05:49:58.076Z,79.30
2023-04-16T05:52:56.066Z,79.48
2023-04-16T05:55:42.541Z,79.41
2023-04-16T05:58:22.968Z,79.11
2023-04-16T06:00:57.456Z,78.56
2023-04-16T06:03:31.107Z,78.37
2023-04-16T06:06:10.548Z,78.17
2023-04-16T06:08:49.924Z,78.00
2023-04-16T06:11:23.583Z,77.59
2023-04-16T06:13:56.709Z,77.16
2023-04-16T06:16:35.328Z,76.58
2023-04-16T06:19:13.918Z,76.59
2023-04-16T06:21:57.088Z,76.53
2023-04-16T06:24:39.351Z,76.16
2023-04-16T06:27:22.467Z,75.79
2023-04-16T06:30:01.065Z,75.56
2023-04-16T06:32:46.464Z,75.12
2023-04-16T06:35:24.180Z,74.93
2023-04-16T06:38:06.921Z,74.67
2023-04-16T06:41:04.151Z,74.51
2023-04-16T06:43:47.466Z,74.41
2023-04-16T06:46:34.976Z,74.35
2023-04-16T06:49:18.843Z,74.27
2023-04-16T06:51:58.382Z,73.93
2023-04-16T06:55:10.901Z,73.69
2023-04-16T06:58:09.690Z,73.91
2023-04-16T07:01:14.399Z,74.03
2023-04-16T07:04:57.411Z,74.24
2023-04-16T07:07:39.466Z,74.83
2023-04-16T07:10:25.686Z,74.25
2023-04-16T07:13:04.234Z,73.42
2023-04-16T07:16:27.693Z,72.16
2023-04-16T07:19:10.681Z,71.86
2023-04-16T07:21:45.288Z,71.52
2023-04-16T07:24:23.693Z,71.06
2023-04-16T07:27:08.867Z,70.70
2023-04-16T07:30:05.792Z,70.15
2023-04-16T07:32:58.942Z,69.70
2023-04-16T07:35:51.330Z,69.03
2023-04-16T07:38:49.312Z,68.81
2023-04-16T07:41:59.086Z,68.95
2023-04-16T07:44:34.884Z,68.69
2023-04-16T07:47:10.947Z,68.10
2023-04-16T07:50:31.671Z,67.71
2023-04-16T07:53:33.113Z,67.53
2023-04-16T07:56:18.502Z,67.25
2023-04-16T07:59:22.113Z,67.43
2023-04-16T08:02:24.357Z,67.62
2023-04-16T08:05:20.730Z,67.29
2023-04-16T08:11:32.036Z,67.38
2023-04-16T08:14:34.126Z,68.09
2023-04-16T08:17:38.233Z,66.58
2023-04-16T08:20:28.572Z,64.81
2023-04-16T08:23:09.032Z,63.34
2023-04-16T08:25:48.184Z,62.46
2023-04-16T08:28:25.556Z,61.52
2023-04-16T08:30:56.223Z,60.75
2023-04-16T08:33:27.466Z,60.07
2023-04-16T08:36:05.034Z,60.06
2023-04-16T08:39:02.444Z,60.12
2023-04-16T08:41:53.550Z,60.27
2023-04-16T08:44:53.066Z,60.23
2023-04-16T08:47:31.905Z,59.87
2023-04-16T08:50:19.755Z,59.20
2023-04-16T08:53:24.759Z,59.89
2023-04-16T08:56:09.028Z,60.10
2023-04-16T08:58:46.889Z,59.90
2023-04-16T09:01:45.358Z,59.63
2023-04-16T09:04:42.482Z,60.02
2023-04-16T09:07:31.898Z,59.88
2023-04-16T09:10:15.347Z,59.07
2023-04-16T09:13:09.812Z,58.32
2023-04-16T09:15:49.508Z,58.31
2023-04-16T09:18:34.542Z,58.53
2023-04-16T09:21:08.145Z,57.77
2023-04-16T09:23:41.658Z,57.03
2023-04-16T09:26:17.514Z,57.40
2023-04-16T09:29:02.853Z,57.00
2023-04-16T09:31:48.042Z,56.77
2023-04-16T09:35:00.203Z,56.28
2023-04-16T09:37:51.920Z,56.12
2023-04-16T09:40:31.421Z,56.30
2023-04-16T09:43:20.236Z,56.49
2023-04-16T09:46:14.250Z,57.52
2023-04-16T09:48:49.448Z,56.95
2023-04-16T09:51:28.634Z,55.72
2023-04-16T09:54:17.768Z,54.59
2023-04-16T09:57:01.998Z,54.13
2023-04-16T10:00:06.744Z,53.58
2023-04-16T10:03:44.220Z,53.58
2023-04-16T10:07:29.895Z,53.90
2023-04-16T10:10:31.274Z,53.89
2023-04-16T10:13:19.510Z,53.38
2023-04-16T10:16:37.905Z,52.81
2023-04-16T10:19:31.653Z,52.60
2023-04-16T10:22:41.347Z,52.39
2023-04-16T10:25:45.813Z,52.11
2023-04-16T10:28:47.117Z,51.16
2023-04-16T10:31:54.414Z,52.01
2023-04-16T10:34:50.921Z,51.25
2023-04-16T10:37:50.082Z,48.01
2023-04-16T10:40:42.724Z,47.34
2023-04-16T10:43:51.671Z,46.36
2023-04-16T10:46:57.693Z,45.78
2023-04-16T10:49:52.186Z,45.62
2023-04-16T10:52:34.021Z,46.12
2023-04-16T10:55:36.043Z,46.16
2023-04-16T10:58:39.245Z,46.23
2023-04-16T11:01:20.336Z,46.34
2023-04-16T11:04:25.380Z,46.29
2023-04-16T11:07:59.678Z,46.82
2023-04-16T11:10:57.364Z,47.22
2023-04-16T11:13:32.200Z,47.40
2023-04-16T11:16:12.544Z,47.17
2023-04-16T11:19:06.313Z,47.28
2023-04-16T11:25:46.287Z,46.74
2023-04-16T11:31:55.696Z,47.50
2023-04-16T11:34:30.779Z,47.01
2023-04-16T11:38:28.143Z,46.81
2023-04-16T11:46:27.969Z,46.99
2023-04-16T11:49:40.014Z,47.56
2023-04-16T11:52:14.663Z,47.91
2023-04-16T11:54:51.532Z,48.31
2023-04-16T11:57:39.070Z,47.77
2023-04-16T12:00:17.213Z,47.36
2023-04-16T12:03:06.462Z,47.12
2023-04-16T12:06:19.875Z,46.82
2023-04-16T12:09:37.896Z,46.80
2023-04-16T12:12:45.217Z,46.83
2023-04-16T12:15:29.728Z,46.66
2023-04-16T12:18:23.377Z,46.06
2023-04-16T12:24:29.264Z,47.00
2023-04-16T12:27:31.140Z,47.06
2023-04-16T12:30:29.991Z,47.29
2023-04-16T12:33:33.977Z,46.71
2023-04-16T12:36:29.028Z,46.42
2023-04-16T12:39:29.309Z,46.43
2023-04-16T12:42:22.908Z,46.55
2023-04-16T12:45:12.373Z,46.18
2023-04-16T12:48:01.171Z,46.18
2023-04-16T12:50:46.625Z,45.78
2023-04-16T12:56:50.737Z,45.99
2023-04-16T13:00:11.351Z,46.24
2023-04-16T13:03:05.237Z,46.05
2023-04-16T13:06:23.496Z,45.65
2023-04-16T13:09:33.391Z,45.51
2023-04-16T13:12:31.782Z,45.18
2023-04-16T13:15:45.958Z,45.24
2023-04-16T13:18:35.514Z,45.46
2023-04-16T13:21:30.978Z,45.42
2023-04-16T13:24:13.261Z,45.31
2023-04-16T13:27:16.718Z,45.18
2023-04-16T13:33:38.009Z,45.42
2023-04-16T13:36:19.850Z,45.31
2023-04-16T13:39:24.336Z,45.28
2023-04-16T13:45:08.519Z,45.59
2023-04-16T13:48:10.928Z,45.72
2023-04-16T13:50:46.339Z,45.37
2023-04-16T13:53:51.701Z,45.46
2023-04-16T13:56:31.507Z,45.29
2023-04-16T13:59:47.409Z,45.11
2023-04-16T14:03:33.989Z,45.11
2023-04-16T14:06:26.585Z,45.00
2023-04-16T14:09:34.436Z,45.01
2023-04-16T14:12:33.692Z,44.32
2023-04-16T14:15:30.264Z,44.54
2023-04-16T14:18:14.236Z,44.75
2023-04-16T14:21:03.486Z,44.56
2023-04-16T14:24:00.249Z,44.48
2023-04-16T14:26:55.060Z,44.45
2023-04-16T14:31:00.141Z,44.63
2023-04-16T14:34:11.233Z,44.83
2023-04-16T14:37:15.283Z,44.72
2023-04-16T14:40:44.713Z,44.86
2023-04-16T14:43:43.317Z,44.93
2023-04-16T14:46:48.224Z,45.15
2023-04-16T14:49:51.879Z,45.39
2023-04-16T14:53:08.624Z,45.69
2023-04-16T14:56:16.482Z,45.56
2023-04-16T14:59:38.876Z,45.42
2023-04-16T15:06:13.853Z,45.59
2023-04-16T15:09:10.608Z,45.36
2023-04-16T15:12:19.137Z,45.39
2023-04-16T15:15:24.389Z,45.41
2023-04-16T15:18:23.134Z,45.71
2023-04-16T15:21:13.564Z,45.79
2023-04-16T15:25:24.618Z,45.74
2023-04-16T15:28:28.219Z,46.12
2023-04-16T15:31:14.707Z,46.29
2023-04-16T15:34:49.663Z,45.98
2023-04-16T15:47:59.675Z,46.04
2023-04-16T15:52:26.158Z,47.18
2023-04-16T15:55:30.857Z,47.78
2023-04-16T15:58:19.842Z,48.35
2023-04-16T16:01:02.837Z,48.58
2023-04-16T16:03:50.884Z,48.98
2023-04-16T16:06:33.010Z,49.21
2023-04-16T16:09:30.546Z,49.44
2023-04-16T16:12:09.176Z,49.57
2023-04-16T16:15:12.468Z,50.02
2023-04-16T16:17:48.211Z,50.29
2023-04-16T16:20:36.428Z,50.76
2023-04-16T16:23:07.778Z,51.46
2023-04-16T16:26:07.179Z,51.79
2023-04-16T16:28:49.280Z,52.44
2023-04-16T16:31:42.701Z,53.06
2023-04-16T16:34:21.300Z,53.53
2023-04-16T16:37:15.986Z,53.96
2023-04-16T16:39:52.831Z,54.10
2023-04-16T16:43:07.771Z,54.19
2023-04-16T16:45:47.153Z,54.65
2023-04-16T16:48:18.307Z,54.92
2023-04-16T16:50:49.426Z,55.08
2023-04-16T16:53:22.827Z,55.19
2023-04-16T16:56:11.964Z,55.23
2023-04-16T16:58:48.526Z,55.38
2023-04-16T17:01:32.721Z,55.34
2023-04-16T17:04:41.964Z,55.56
2023-04-16T17:10:29.154Z,55.73
2023-04-16T17:13:44.348Z,56.01
2023-04-16T17:19:56.358Z,56.24
2023-04-16T17:23:00.891Z,56.18
2023-04-16T17:30:17.860Z,56.62
2023-04-16T17:33:45.276Z,56.78
2023-04-16T17:36:52.196Z,57.06
2023-04-16T17:39:44.083Z,57.16
2023-04-16T17:42:53.740Z,57.26
2023-04-16T17:46:13.923Z,57.49
2023-04-16T17:49:13.506Z,57.70
2023-04-16T17:52:06.577Z,57.75
2023-04-16T17:54:56.026Z,57.99
2023-04-16T17:57:41.200Z,58.12
2023-04-16T18:00:43.114Z,58.16
2023-04-16T18:03:28.745Z,58.26
2023-04-16T18:06:10.492Z,58.49
2023-04-16T18:09:18.727Z,58.64
2023-04-16T18:12:09.922Z,58.91
2023-04-16T18:15:14.165Z,59.04
2023-04-16T18:18:17.694Z,59.19
2023-04-16T18:21:18.159Z,59.47
2023-04-16T18:24:18.223Z,59.57
2023-04-16T18:27:12.674Z,59.71
2023-04-16T18:30:40.492Z,59.88
2023-04-16T18:36:33.426Z,60.29
2023-04-16T18:39:32.292Z,60.45
2023-04-16T18:42:23.216Z,60.54
2023-04-16T18:45:50.989Z,60.69
2023-04-16T18:49:07.829Z,60.96
2023-04-16T18:52:02.250Z,61.24
2023-04-16T18:54:45.121Z,61.39
2023-04-16T19:03:57.484Z,61.91
2023-04-16T19:07:04.670Z,62.07
2023-04-16T19:09:48.798Z,62.20
2023-04-16T19:12:32.049Z,62.35
2023-04-16T19:15:22.003Z,62.35
2023-04-16T19:18:29.396Z,62.39
2023-04-16T19:22:09.731Z,62.46
2023-04-16T19:25:24.435Z,62.64
2023-04-16T19:28:19.862Z,62.88
2023-04-16T19:31:18.801Z,63.01
2023-04-16T19:37:32.554Z,63.29
2023-04-16T19:40:49.942Z,63.65
2023-04-16T19:43:49.769Z,63.92
2023-04-16T19:47:04.300Z,64.13
2023-04-16T19:49:54.679Z,64.30
2023-04-16T19:52:47.255Z,64.37
2023-04-16T19:56:01.169Z,64.52
2023-04-16T19:59:01.990Z,64.76
2023-04-16T20:01:52.868Z,65.05
2023-04-16T20:04:51.898Z,65.23
2023-04-16T20:14:19.432Z,66.01
2023-04-16T20:17:24.207Z,66.11
2023-04-16T20:20:20.737Z,66.27
2023-04-16T20:23:11.844Z,66.33
2023-04-16T20:25:49.951Z,66.55
2023-04-16T20:28:43.319Z,66.67
2023-04-16T20:31:23.130Z,66.84
2023-04-16T20:34:04.340Z,66.99
2023-04-16T20:36:47.448Z,67.23
2023-04-16T20:39:44.923Z,67.38
2023-04-16T20:46:42.184Z,67.96
2023-04-16T20:49:53.219Z,68.32
2023-04-16T20:53:30.689Z,68.58
2023-04-16T21:00:03.523Z,69.06
2023-04-16T21:03:23.943Z,69.12
2023-04-16T21:06:07.518Z,69.31
2023-04-16T21:12:34.126Z,69.73
2023-04-16T21:15:24.712Z,69.80
2023-04-16T21:18:47.122Z,69.88
2023-04-16T21:22:33.754Z,70.25
2023-04-16T21:25:44.090Z,70.26
2023-04-16T21:28:42.946Z,70.34
2023-04-16T21:31:43.720Z,70.50
2023-04-16T21:35:15.583Z,70.50
2023-04-16T21:38:20.315Z,70.53
2023-04-16T21:41:14.839Z,70.53
2023-04-16T21:44:02.747Z,70.58
2023-04-16T21:47:27.868Z,70.63
2023-04-16T21:50:31.132Z,70.87
2023-04-16T21:53:35.658Z,70.95
2023-04-16T21:57:01.597Z,71.04
2023-04-16T22:00:34.965Z,71.17
2023-04-16T22:03:51.433Z,71.12
2023-04-16T22:07:06.726Z,71.34
2023-04-16T22:10:46.897Z,71.43
2023-04-16T22:13:52.407Z,71.53
2023-04-16T22:16:38.103Z,71.62
2023-04-16T22:19:42.326Z,71.69
2023-04-16T22:23:11.369Z,71.85
2023-04-16T22:26:27.679Z,72.05
2023-04-16T22:29:35.488Z,72.26
2023-04-16T22:32:17.512Z,72.48
2023-04-16T22:35:06.389Z,72.48
2023-04-16T22:38:06.120Z,72.44
2023-04-16T22:41:38.477Z,72.52
2023-04-16T22:45:09.645Z,72.86
2023-04-16T22:48:27.478Z,72.97
2023-04-16T22:51:35.118Z,73.06
2023-04-16T22:54:48.284Z,73.25
2023-04-16T22:58:14.469Z,73.32
2023-04-16T23:05:19.500Z,73.55
2023-04-16T23:08:43.173Z,73.72
2023-04-16T23:11:58.779Z,73.76
2023-04-16T23:15:17.135Z,73.82
2023-04-16T23:18:22.442Z,73.83
2023-04-16T23:21:43.209Z,73.92
2023-04-16T23:28:13.301Z,74.14
2023-04-16T23:31:21.598Z,74.18
2023-04-16T23:34:02.560Z,74.31
2023-04-16T23:56:20.493Z,70.00
